Time;durP1;ratioP1;P1;durP2;ratioP2;P2;SDS_P1;SDS_P2;PMS_P1;PMS_P2;Temp;Humidity;BMP_temperature;BMP_pressure;BME280_temperature;BME280_humidity;BME280_pressure;Samples;Min_cycle;Max_cycle;Signal;HPM_P1;HPM_P2
2022/03/26 00:00:51;;;;;;;3.12;2.83;;;;;;;9.00;38.01;100893.06;4369880;32;35396;-88
2022/03/26 00:03:27;;;;;;;9.32;3.50;;;;;;;8.93;38.07;100892.66;4369243;32;33094;-89
2022/03/26 00:05:59;;;;;;;16.23;4.32;;;;;;;8.94;38.09;100889.03;4370034;32;34775;-90
2022/03/26 00:08:30;;;;;;;4.22;3.30;;;;;;;8.85;38.42;100894.13;4369581;32;33511;-89
2022/03/26 00:11:18;;;;;;;3.25;2.92;;;;;;;8.88;38.53;100891.28;4372073;32;34836;-89
2022/03/26 00:14:07;;;;;;;4.28;3.97;;;;;;;8.89;38.28;100901.75;4371659;32;35030;-89
2022/03/26 00:16:55;;;;;;;4.87;3.20;;;;;;;8.86;38.20;100901.97;4370894;32;32237;-90
2022/03/26 00:19:58;;;;;;;6.87;3.92;;;;;;;8.80;38.36;100894.44;4360429;32;34131;-90
2022/03/26 00:22:26;;;;;;;7.78;3.20;;;;;;;8.78;38.49;100911.41;4369478;32;34128;-90
2022/03/26 00:24:56;;;;;;;6.22;3.62;;;;;;;8.72;38.85;100911.84;4356769;32;34315;-90
2022/03/26 00:27:24;;;;;;;;;;;;;;;8.67;38.92;100912.16;4369743;32;34929;-89
2022/03/26 00:29:52;;;;;;;4.78;2.75;;;;;;;8.72;38.83;100912.69;4370188;32;33582;-90
2022/03/26 00:32:24;;;;;;;3.65;2.25;;;;;;;8.67;38.83;100903.34;4370705;32;35461;-89
2022/03/26 00:34:52;;;;;;;5.80;2.90;;;;;;;8.65;38.89;100906.12;4368654;32;33272;-89
2022/03/26 00:37:38;;;;;;;3.05;2.83;;;;;;;8.48;39.15;100902.06;4371022;32;32591;-89
2022/03/26 00:40:07;;;;;;;6.07;3.85;;;;;;;8.53;39.11;100906.94;4368351;32;33214;-89
2022/03/26 00:42:35;;;;;;;3.95;3.65;;;;;;;8.47;39.22;100900.38;4368616;32;34140;-88
2022/03/26 00:45:04;;;;;;;4.03;3.42;;;;;;;8.42;39.48;100905.13;4357004;32;34556;-88
2022/03/26 00:47:52;;;;;;;2.42;1.95;;;;;;;8.35;39.56;100902.06;4359771;32;33293;-89
2022/03/26 00:50:24;;;;;;;12.32;3.10;;;;;;;8.36;39.53;100906.41;4370862;32;34917;-89
2022/03/26 00:52:55;;;;;;;7.15;4.93;;;;;;;8.41;39.40;100906.09;4384662;32;36134;-89
2022/03/26 00:55:27;;;;;;;3.95;3.22;;;;;;;8.32;39.49;100901.41;4384321;32;35108;-89
2022/03/26 00:57:55;;;;;;;;;;;;;;;8.19;40.31;100896.06;4358803;32;33885;-89
2022/03/26 01:00:43;;;;;;;5.22;3.58;;;;;;;8.29;40.13;100897.16;4384035;32;32304;-89
2022/03/26 01:03:12;;;;;;;4.25;3.95;;;;;;;8.12;40.83;100893.91;4371279;32;34578;-89
2022/03/26 01:05:39;;;;;;;4.78;3.10;;;;;;;8.10;40.73;100895.81;4358003;32;33076;-89
2022/03/26 01:08:28;;;;;;;6.07;5.03;;;;;;;8.13;40.51;100891.13;4360270;32;33012;-89
2022/03/26 01:10:55;;;;;;;13.80;3.15;;;;;;;8.07;41.01;100896.00;4370570;32;32690;-89
2022/03/26 01:13:25;;;;;;;7.87;4.18;;;;;;;8.11;40.56;100889.56;4370472;32;35132;-89
2022/03/26 01:15:53;;;;;;;5.95;3.62;;;;;;;8.01;40.73;100891.97;4357852;32;33316;-88
2022/03/26 01:18:22;;;;;;;7.15;4.30;;;;;;;8.00;41.05;100890.28;4384826;32;33379;-89
2022/03/26 01:20:50;;;;;;;6.30;3.87;;;;;;;8.17;41.24;100883.84;4358349;32;32820;-88
2022/03/26 01:23:22;;;;;;;7.10;5.57;;;;;;;7.56;42.91;100884.37;4371102;32;35912;-89
2022/03/26 01:25:52;;;;;;;4.28;3.87;;;;;;;7.59;43.15;100880.69;4357515;32;33021;-89
2022/03/26 01:28:20;;;;;;;6.00;3.58;;;;;;;7.69;42.72;100880.00;4370854;32;33546;-88
2022/03/26 01:30:53;;;;;;;6.20;4.18;;;;;;;7.77;42.51;100888.31;4384105;32;33441;-89
2022/03/26 01:33:40;;;;;;;6.07;4.28;;;;;;;7.85;41.99;100885.97;4372345;32;34708;-89
2022/03/26 01:36:09;;;;;;;4.50;4.10;;;;;;;7.83;41.78;100884.41;4358392;32;33624;-88
2022/03/26 01:38:37;;;;;;;5.05;4.65;;;;;;;7.86;41.99;100876.25;4370976;32;33453;-88
2022/03/26 01:41:07;;;;;;;6.22;5.68;;;;;;;7.81;41.79;100876.53;4370597;32;33863;-88
2022/03/26 01:43:41;;;;;;;6.37;5.65;;;;;;;7.76;41.97;100880.44;4371061;32;34848;-89
2022/03/26 01:46:22;;;;;;;7.12;4.10;;;;;;;7.80;41.73;100879.28;4372087;32;33461;-88
2022/03/26 01:48:53;;;;;;;4.80;3.45;;;;;;;7.82;41.46;100869.47;4370575;32;33147;-88
2022/03/26 01:51:22;;;;;;;11.12;4.40;;;;;;;7.73;41.62;100868.25;4358073;32;32388;-88
2022/03/26 01:53:51;;;;;;;6.53;4.68;;;;;;;7.80;41.71;100879.28;4357417;32;36092;-89
2022/03/26 01:56:25;;;;;;;6.93;5.18;;;;;;;7.70;41.74;100867.59;4384533;32;34075;-88
2022/03/26 01:58:52;;;;;;;5.78;4.35;;;;;;;7.60;42.37;100871.78;4357674;32;33308;-89
2022/03/26 02:01:42;;;;;;;7.12;4.28;;;;;;;7.69;42.30;100871.19;4372977;32;33945;-90
2022/03/26 02:04:12;;;;;;;10.43;5.15;;;;;;;7.69;42.27;100873.84;4370248;32;34584;-89
2022/03/26 02:06:44;;;;;;;5.28;4.20;;;;;;;7.53;42.68;100868.69;4358565;32;33195;-88
2022/03/26 02:09:15;;;;;;;4.87;3.30;;;;;;;7.45;42.75;100868.34;4358210;32;32697;-88
2022/03/26 02:12:29;;;;;;;3.83;3.55;;;;;;;7.45;43.18;100868.34;4362789;32;33899;-89
2022/03/26 02:14:58;;;;;;;4.43;4.03;;;;;;;7.45;42.90;100872.81;4370255;32;35510;-88
2022/03/26 02:17:30;;;;;;;3.70;3.40;;;;;;;7.44;42.77;100873.75;4370137;32;35029;-88
2022/03/26 02:20:00;;;;;;;7.05;6.07;;;;;;;7.51;42.73;100861.78;4383995;32;33336;-89
2022/03/26 02:22:40;;;;;;;4.25;3.90;;;;;;;7.57;42.87;100866.69;4384333;32;34070;-90
2022/03/26 02:25:10;;;;;;;8.63;4.62;;;;;;;7.66;43.03;100864.28;4370334;32;34673;-88
2022/03/26 02:27:38;;;;;;;7.07;3.35;;;;;;;7.64;43.28;100868.00;4384168;32;34494;-89
2022/03/26 02:30:07;;;;;;;8.07;4.00;;;;;;;7.63;43.21;100861.84;4345771;32;31994;-89
2022/03/26 02:32:35;;;;;;;6.47;4.68;;;;;;;7.69;42.99;100856.16;4370342;32;33493;-89
2022/03/26 02:35:25;;;;;;;11.65;5.65;;;;;;;7.69;43.01;100860.59;4363368;32;34588;-88
2022/03/26 02:37:54;;;;;;;4.35;3.85;;;;;;;7.72;43.35;100861.25;4369968;32;33406;-89
2022/03/26 02:40:58;;;;;;;6.93;4.40;;;;;;;7.77;43.33;100855.66;4352489;32;31937;-88
2022/03/26 02:43:27;;;;;;;16.87;5.62;;;;;;;7.69;43.32;100857.94;4370341;32;33927;-88
2022/03/26 02:46:19;;;;;;;9.32;4.95;;;;;;;7.66;43.19;100856.34;4373098;32;34989;-88
2022/03/26 02:48:49;;;;;;;5.12;3.47;;;;;;;7.54;43.85;100859.81;4383395;32;34486;-89
2022/03/26 02:51:19;;;;;;;6.50;3.75;;;;;;;7.58;44.28;100868.41;4382413;32;32948;-88
2022/03/26 02:53:57;;;;;;;6.75;4.43;;;;;;;7.65;44.06;100864.41;4371011;32;32397;-89
2022/03/26 02:56:26;;;;;;;8.98;4.53;;;;;;;7.55;44.39;100861.50;4369846;32;34606;-90
2022/03/26 02:58:54;;;;;;;11.80;5.65;;;;;;;7.65;43.75;100865.25;4370631;32;34562;-88
2022/03/26 03:01:23;;;;;;;5.87;3.10;;;;;;;7.68;43.38;100867.72;4357437;32;32673;-88
2022/03/26 03:04:11;;;;;;;6.62;4.60;;;;;;;7.62;43.37;100864.59;4372842;32;33547;-88
2022/03/26 03:06:42;;;;;;;6.05;4.57;;;;;;;7.59;43.42;100873.59;4358612;32;34339;-88
2022/03/26 03:09:11;;;;;;;9.32;4.00;;;;;;;7.54;43.42;100865.09;4370243;32;34461;-88
2022/03/26 03:11:39;;;;;;;8.07;5.70;;;;;;;7.42;43.75;100865.91;4370046;32;32968;-89
2022/03/26 03:14:08;;;;;;;5.43;4.60;;;;;;;7.33;44.14;100868.28;4357426;32;33873;-88
2022/03/26 03:16:56;;;;;;;5.55;3.60;;;;;;;7.38;44.00;100871.47;4381844;32;34645;-89
2022/03/26 03:19:28;;;;;;;29.00;4.65;;;;;;;7.40;43.89;100870.44;4370292;32;33766;-90
2022/03/26 03:21:57;;;;;;;4.22;3.75;;;;;;;7.32;44.08;100866.56;4358052;32;32913;-89
2022/03/26 03:24:25;;;;;;;7.28;4.00;;;;;;;7.26;44.19;100864.34;4357796;32;33556;-90
2022/03/26 03:26:54;;;;;;;5.45;4.32;;;;;;;7.32;43.99;100864.78;4370251;32;35616;-89
2022/03/26 03:29:24;;;;;;;5.15;3.60;;;;;;;7.25;44.11;100867.91;4383058;32;34492;-89
2022/03/26 03:31:53;;;;;;;5.15;4.07;;;;;;;7.13;44.33;100869.56;4383251;32;33854;-89
2022/03/26 03:34:23;;;;;;;9.38;4.50;;;;;;;7.17;44.38;100871.03;4357432;32;33642;-89
2022/03/26 03:37:09;;;;;;;14.35;4.32;;;;;;;7.25;44.19;100871.41;4371668;32;35837;-90
2022/03/26 03:39:53;;;;;;;8.15;3.58;;;;;;;7.26;44.11;100870.47;4358797;32;33014;-90
2022/03/26 03:42:22;;;;;;;6.47;4.00;;;;;;;7.11;44.86;100867.94;4369911;32;32601;-90
2022/03/26 03:44:50;;;;;;;8.68;4.25;;;;;;;7.11;44.92;100867.94;4382848;32;33067;-90
2022/03/26 03:47:38;;;;;;;;;;;;;;;7.10;44.85;100867.06;4357699;32;34308;-90
2022/03/26 03:50:26;;;;;;;;;;;;;;;7.06;45.09;100864.72;4372597;32;35447;-90
2022/03/26 03:52:58;;;;;;;11.70;3.97;;;;;;;7.08;45.06;100861.03;4370427;32;31505;-90
2022/03/26 03:55:28;;;;;;;6.62;3.78;;;;;;;6.98;45.45;100859.91;4382874;32;34371;-87
2022/03/26 03:57:56;;;;;;;5.25;4.57;;;;;;;6.85;45.77;100863.44;4368855;32;35043;-88
2022/03/26 04:00:25;;;;;;;7.55;3.85;;;;;;;6.98;45.35;100859.09;4382710;32;34682;-88
2022/03/26 04:02:54;;;;;;;5.22;3.03;;;;;;;7.00;45.38;100857.19;4370003;32;33063;-89
2022/03/26 04:05:22;;;;;;;5.22;3.28;;;;;;;6.99;45.61;100855.50;4355974;32;33060;-89
2022/03/26 04:07:54;;;;;;;4.07;3.50;;;;;;;6.96;45.79;100856.53;4370021;32;35742;-89
2022/03/26 04:10:21;;;;;;;3.87;3.35;;;;;;;7.02;45.47;100850.00;4368589;32;34848;-89
2022/03/26 04:12:50;;;;;;;4.78;3.40;;;;;;;7.00;45.74;100854.53;4369390;32;33926;-89
2022/03/26 04:15:19;;;;;;;2.85;2.62;;;;;;;6.99;45.72;100856.31;4369432;32;34538;-89
2022/03/26 04:17:47;;;;;;;3.95;3.37;;;;;;;6.91;46.13;100863.06;4356710;32;34377;-88
2022/03/26 04:20:16;;;;;;;6.65;4.43;;;;;;;6.95;45.92;100859.25;4357035;32;33144;-88
2022/03/26 04:22:45;;;;;;;5.57;2.95;;;;;;;6.83;46.13;100857.37;4357817;32;33538;-89
2022/03/26 04:25:13;;;;;;;5.85;3.72;;;;;;;6.86;46.09;100865.13;4357580;32;33881;-89
2022/03/26 04:27:44;;;;;;;10.63;5.07;;;;;;;6.70;46.49;100867.03;4383244;32;35668;-87
2022/03/26 04:30:16;;;;;;;7.25;4.32;;;;;;;6.42;47.44;100874.94;4371592;32;34162;-91
2022/03/26 04:32:44;;;;;;;4.15;3.83;;;;;;;6.35;47.14;100871.78;4385273;32;32642;-90
2022/03/26 04:35:13;;;;;;;5.80;3.58;;;;;;;6.48;47.01;100879.84;4359310;32;32517;-90
2022/03/26 04:38:02;;;;;;;8.00;4.30;;;;;;;6.35;47.69;100885.00;4373648;32;35022;-89
2022/03/26 04:40:34;;;;;;;3.78;3.40;;;;;;;6.13;48.60;100881.94;4359387;32;34555;-90
2022/03/26 04:43:03;;;;;;;9.50;5.22;;;;;;;6.20;48.32;100880.66;4371526;32;32024;-89
2022/03/26 04:45:50;;;;;;;6.47;4.43;;;;;;;6.19;48.74;100884.25;4370590;32;33031;-89
2022/03/26 04:48:23;;;;;;;3.72;3.42;;;;;;;6.17;48.80;100882.62;4359346;32;34826;-89
2022/03/26 04:50:52;;;;;;;6.62;3.45;;;;;;;6.27;48.64;100886.41;4370771;32;33680;-89
2022/03/26 04:53:20;;;;;;;10.73;4.75;;;;;;;6.18;48.76;100885.19;4358858;32;31887;-89
2022/03/26 04:55:49;;;;;;;9.95;4.15;;;;;;;6.20;48.67;100880.66;4370697;32;33876;-88
2022/03/26 04:58:25;;;;;;;3.65;2.62;;;;;;;6.11;49.15;100878.53;4371636;32;33918;-89
2022/03/26 05:00:56;;;;;;;6.20;4.00;;;;;;;6.30;48.80;100880.94;4384367;32;34722;-87
2022/03/26 05:03:25;;;;;;;4.30;3.87;;;;;;;6.46;48.37;100877.31;4384246;32;32933;-88
2022/03/26 05:05:53;;;;;;;;;;;;;;;6.56;47.94;100883.75;4385265;32;33504;-89
2022/03/26 05:08:23;;;;;;;7.50;3.45;;;;;;;6.68;47.79;100892.69;4358450;32;34331;-89
2022/03/26 05:10:53;;;;;;;5.00;3.35;;;;;;;6.54;48.15;100893.53;4371378;32;34491;-89
2022/03/26 05:13:26;;;;;;;4.07;3.58;;;;;;;6.38;49.51;100892.78;4371191;32;33341;-90
2022/03/26 05:15:57;;;;;;;4.87;4.43;;;;;;;6.65;48.17;100896.41;4345782;32;33882;-90
2022/03/26 05:18:28;;;;;;;7.93;5.00;;;;;;;6.56;48.19;100896.97;4357837;32;34942;-89
2022/03/26 05:21:00;;;;;;;4.40;3.90;;;;;;;6.71;47.82;100906.59;4371147;32;34402;-89
2022/03/26 05:23:29;;;;;;;14.93;5.62;;;;;;;6.59;48.21;100903.81;4358877;32;32967;-90
2022/03/26 05:25:58;;;;;;;6.85;4.60;;;;;;;6.71;48.22;100900.47;4370924;32;33899;-90
2022/03/26 05:28:30;;;;;;;4.68;4.28;;;;;;;6.86;47.74;100907.44;4359456;32;34745;-90
2022/03/26 05:30:58;;;;;;;5.57;3.78;;;;;;;6.83;47.84;100905.00;4357290;32;33735;-89
2022/03/26 05:33:30;;;;;;;5.70;3.37;;;;;;;6.84;47.93;100907.56;4369846;32;33948;-88
2022/03/26 05:36:01;;;;;;;8.88;4.90;;;;;;;6.77;48.76;100911.50;4345095;32;33637;-88
2022/03/26 05:38:31;;;;;;;9.55;4.55;;;;;;;6.86;48.32;100903.00;4369659;32;34856;-88
2022/03/26 05:40:59;;;;;;;9.02;4.75;;;;;;;7.07;47.89;100906.12;4370796;32;34211;-90
2022/03/26 05:43:43;;;;;;;4.65;3.50;;;;;;;7.13;47.94;100903.09;4372553;32;32879;-90
2022/03/26 05:46:13;;;;;;;10.73;6.03;;;;;;;7.17;47.82;100900.16;4371003;32;34080;-89
2022/03/26 05:48:40;;;;;;;5.28;4.45;;;;;;;7.15;48.21;100903.84;4358361;32;33578;-89
2022/03/26 05:51:29;;;;;;;;;;;;;;;7.14;48.33;100908.28;4370913;32;33505;-90
2022/03/26 05:53:57;;;;;;;5.03;3.97;;;;;;;7.33;48.23;100906.19;4371375;32;32534;-89
2022/03/26 05:56:38;;;;;;;4.55;4.07;;;;;;;7.53;47.95;100905.75;4384528;32;34843;-87
2022/03/26 05:59:09;;;;;;;8.40;4.32;;;;;;;7.66;47.52;100909.31;4358135;32;34981;-88
2022/03/26 06:01:37;;;;;;;8.20;5.32;;;;;;;7.65;48.08;100910.25;4371004;32;34607;-88
2022/03/26 06:04:29;;;;;;;9.13;5.00;;;;;;;7.99;47.00;100915.06;4384365;32;34152;-88
2022/03/26 06:07:17;;;;;;;;;;;;;;;8.13;46.49;100908.88;4368690;32;33527;-89
2022/03/26 06:09:45;;;;;;;;;;;;;;;8.22;46.83;100910.94;4368501;32;33720;-90
2022/03/26 06:12:32;;;;;;;3.78;3.47;;;;;;;8.28;46.38;100910.53;4368302;32;34238;-90
2022/03/26 06:15:22;;;;;;;8.07;5.03;;;;;;;8.57;45.79;100908.44;4358095;32;33319;-90
2022/03/26 06:18:10;;;;;;;9.65;4.28;;;;;;;8.66;45.83;100907.81;4368206;32;33864;-91
2022/03/26 06:20:42;;;;;;;8.88;4.07;;;;;;;8.68;45.95;100910.34;4355746;32;33402;-90
2022/03/26 06:23:11;;;;;;;5.30;3.87;;;;;;;8.99;44.96;100916.06;4368529;32;33784;-87
2022/03/26 06:25:42;;;;;;;4.40;4.10;;;;;;;9.37;44.01;100913.38;4355950;32;33247;-89
2022/03/26 06:28:10;;;;;;;4.40;3.85;;;;;;;9.50;43.75;100912.41;4367270;32;32956;-91
2022/03/26 06:30:38;;;;;;;8.82;4.55;;;;;;;9.76;42.94;100903.38;4355535;32;34256;-89
2022/03/26 06:33:08;;;;;;;21.65;15.23;;;;;;;10.01;42.45;100908.56;4355826;32;35610;-89
2022/03/26 06:35:55;;;;;;;20.25;17.60;;;;;;;10.37;41.71;100907.69;4357284;32;32059;-88
2022/03/26 06:38:31;;;;;;;8.27;7.22;;;;;;;10.36;41.75;100914.78;4367945;32;32799;-89
2022/03/26 06:40:59;;;;;;;5.28;4.82;;;;;;;10.71;40.70;100912.97;4368329;32;33867;-87
2022/03/26 06:43:30;;;;;;;7.47;4.50;;;;;;;10.96;39.90;100909.25;4368194;32;33506;-87
2022/03/26 06:46:02;;;;;;;6.68;4.07;;;;;;;11.13;39.25;100911.44;4366731;32;34139;-86
2022/03/26 06:48:35;;;;;;;8.25;4.87;;;;;;;11.31;38.69;100913.47;4367734;32;36178;-87
2022/03/26 06:51:22;;;;;;;6.32;5.25;;;;;;;11.49;38.33;100914.66;4367676;32;34309;-89
2022/03/26 06:54:00;;;;;;;;;;;;;;;11.71;38.02;100907.53;4369208;32;34698;-86
2022/03/26 06:56:37;;;;;;;11.50;5.53;;;;;;;11.94;37.58;100908.31;4369003;32;33115;-87
2022/03/26 06:59:09;;;;;;;5.00;4.50;;;;;;;12.06;38.44;100909.94;4356518;32;32527;-87
2022/03/26 07:01:58;;;;;;;5.28;4.87;;;;;;;12.09;38.05;100912.38;4367912;32;34601;-87
2022/03/26 07:04:26;;;;;;;7.65;4.30;;;;;;;12.31;37.92;100917.63;4368982;32;33581;-87
2022/03/26 07:07:15;;;;;;;6.10;5.53;;;;;;;12.57;37.11;100914.44;4357153;32;34461;-86
2022/03/26 07:09:42;;;;;;;14.75;6.05;;;;;;;12.82;36.90;100918.53;4367877;32;33347;-86
2022/03/26 07:12:14;;;;;;;6.40;5.80;;;;;;;13.00;36.32;100923.19;4355026;32;36249;-86
2022/03/26 07:14:44;;;;;;;6.72;6.10;;;;;;;13.49;35.27;100920.59;4355462;32;33941;-86
2022/03/26 07:17:31;;;;;;;16.98;5.57;;;;;;;13.38;35.68;100914.50;4367863;32;32196;-87
2022/03/26 07:20:03;;;;;;;5.80;4.93;;;;;;;13.67;34.57;100918.13;4366934;32;32863;-88
2022/03/26 07:22:31;;;;;;;11.60;5.20;;;;;;;13.79;35.10;100915.19;4367783;32;35880;-88
2022/03/26 07:25:19;;;;;;;;;;;;;;;13.82;34.84;100917.59;4357739;32;35102;-88
2022/03/26 07:28:07;;;;;;;6.20;5.28;;;;;;;14.12;33.50;100917.50;4367787;32;32335;-88
2022/03/26 07:30:40;;;;;;;8.25;6.70;;;;;;;14.42;32.95;100914.72;4364619;32;33485;-86
2022/03/26 07:33:10;;;;;;;4.97;4.47;;;;;;;14.40;33.37;100908.66;4352635;32;33827;-84
2022/03/26 07:35:39;;;;;;;10.27;5.55;;;;;;;14.57;32.25;100908.78;4367301;32;34365;-86
2022/03/26 07:38:27;;;;;;;6.53;5.95;;;;;;;14.82;30.92;100915.34;4356953;32;32333;-86
2022/03/26 07:40:57;;;;;;;11.02;6.20;;;;;;;15.09;31.19;100908.25;4354773;32;33552;-85
2022/03/26 07:43:44;;;;;;;9.43;7.87;;;;;;;15.21;31.57;100908.91;4367564;32;34404;-86
2022/03/26 07:46:18;;;;;;;19.20;6.57;;;;;;;15.37;30.00;100911.81;4378998;32;34606;-87
2022/03/26 07:49:06;;;;;;;5.68;4.95;;;;;;;15.38;30.07;100917.06;4367427;32;32727;-86
2022/03/26 07:51:35;;;;;;;8.93;7.40;;;;;;;15.27;30.06;100903.81;4368727;32;33604;-85
2022/03/26 07:54:06;;;;;;;9.70;7.32;;;;;;;15.40;29.98;100908.88;4367134;32;34581;-85
2022/03/26 07:56:38;;;;;;;7.20;6.50;;;;;;;15.36;30.18;100918.19;4366876;32;33864;-85
2022/03/26 07:59:26;;;;;;;14.25;8.82;;;;;;;15.42;30.55;100912.25;4367297;32;32002;-86
2022/03/26 08:02:29;;;;;;;10.05;6.10;;;;;;;15.13;31.19;100922.22;4367596;32;33889;-84
2022/03/26 08:05:00;;;;;;;10.10;7.18;;;;;;;15.17;30.65;100919.09;4354989;32;34979;-87
2022/03/26 08:07:30;;;;;;;7.25;6.12;;;;;;;15.33;31.82;100929.22;4354878;32;33192;-90
2022/03/26 08:10:23;;;;;;;10.63;6.45;;;;;;;15.59;30.78;100923.03;4368189;32;33097;-89
2022/03/26 08:12:52;;;;;;;5.47;4.95;;;;;;;15.80;30.01;100907.53;4354539;32;34011;-90
2022/03/26 08:15:26;;;;;;;6.22;5.60;;;;;;;15.73;30.51;100903.75;4367782;32;34561;-87
2022/03/26 08:18:11;;;;;;;12.95;5.45;;;;;;;16.04;29.70;100905.09;4367028;32;34429;-91
2022/03/26 08:21:03;;;;;;;4.97;4.57;;;;;;;15.80;30.26;100904.00;4368521;32;33366;-93
2022/03/26 08:23:34;;;;;;;5.80;5.22;;;;;;;16.30;29.75;100911.41;4367742;32;33787;-92
2022/03/26 08:26:26;;;;;;;4.87;4.45;;;;;;;16.23;29.24;100907.63;4357149;32;36367;-89
2022/03/26 08:28:59;;;;;;;5.78;5.00;;;;;;;16.08;29.72;100905.63;4367913;32;35166;-89
2022/03/26 08:31:30;;;;;;;5.50;4.15;;;;;;;16.59;29.51;100909.34;4354421;32;33242;-91
2022/03/26 08:34:03;;;;;;;5.93;4.68;;;;;;;16.72;30.29;100911.63;4364393;32;33928;-93
2022/03/26 08:36:47;;;;;;;6.93;5.10;;;;;;;16.62;28.77;100903.62;4369165;32;34883;-82
2022/03/26 08:39:15;;;;;;;4.03;3.72;;;;;;;16.60;29.07;100905.66;4354262;32;35452;-86
2022/03/26 08:41:47;;;;;;;10.27;5.07;;;;;;;17.00;28.77;100907.78;4367972;32;34496;-88
2022/03/26 08:44:16;;;;;;;10.85;5.85;;;;;;;17.22;27.94;100916.16;4341633;32;32772;-85
2022/03/26 08:47:05;;;;;;;8.40;4.60;;;;;;;17.45;27.59;100914.63;4367486;32;35695;-90
2022/03/26 08:49:36;;;;;;;9.30;5.90;;;;;;;17.35;28.45;100915.72;4353174;32;33257;-88
2022/03/26 08:52:17;;;;;;;18.42;5.95;;;;;;;17.35;28.24;100913.03;4354249;32;32561;-89
2022/03/26 08:55:06;;;;;;;6.50;4.30;;;;;;;17.52;28.42;100912.97;4366778;32;34505;-89
2022/03/26 08:57:50;;;;;;;6.22;4.20;;;;;;;17.81;27.79;100914.28;4365816;32;35503;-91
2022/03/26 09:00:22;;;;;;;5.60;5.10;;;;;;;17.57;27.77;100916.03;4365458;32;33402;-90
2022/03/26 09:03:04;;;;;;;16.67;5.30;;;;;;;17.57;27.77;100916.03;4366932;32;33205;-91
2022/03/26 09:05:52;;;;;;;;;;;;;;;17.72;27.58;100907.19;4357301;32;33655;-87
2022/03/26 09:08:37;;;;;;;3.25;3.05;;;;;;;17.80;27.65;100909.06;4369332;32;33708;-93
2022/03/26 09:11:24;;;;;;;3.85;3.55;;;;;;;17.85;27.88;100907.56;4373800;32;33619;-92
2022/03/26 09:14:14;;;;;;;4.95;3.97;;;;;;;17.84;27.57;100900.47;4384184;32;33142;-90
2022/03/26 09:17:02;;;;;;;5.95;4.87;;;;;;;18.00;28.20;100896.97;4373711;32;33510;-91
2022/03/26 09:19:51;;;;;;;9.43;5.50;;;;;;;18.12;27.20;100898.34;4363593;32;34705;-87
2022/03/26 09:22:39;;;;;;;;;;;;;;;18.26;27.32;100898.56;4373590;32;33637;-90
2022/03/26 09:25:24;;;;;;;5.75;4.12;;;;;;;18.56;26.98;100889.00;4372859;32;33186;-91
2022/03/26 09:27:52;;;;;;;2.95;2.72;;;;;;;18.57;28.15;100894.22;4359091;32;33812;-90
2022/03/26 09:30:22;;;;;;;6.90;3.70;;;;;;;18.44;27.72;100884.97;4371681;32;33994;-91
2022/03/26 09:32:52;;;;;;;4.62;4.03;;;;;;;18.70;26.30;100883.75;4359006;32;34301;-93
2022/03/26 09:35:40;;;;;;;;;;;;;;;18.76;27.43;100882.25;4372606;32;34339;-90
2022/03/26 09:38:48;;;;;;;11.18;4.80;;;;;;;18.70;26.50;100881.06;4376185;32;34123;-92
2022/03/26 09:41:22;;;;;;;3.80;2.75;;;;;;;18.70;26.81;100891.03;4382679;32;34239;-94
2022/03/26 09:44:14;;;;;;;7.10;4.78;;;;;;;18.75;26.34;100884.09;4371064;32;33174;-86
2022/03/26 09:46:42;;;;;;;4.40;4.10;;;;;;;18.88;25.81;100894.37;4370470;32;32567;-85
2022/03/26 09:49:11;;;;;;;7.68;5.07;;;;;;;18.85;26.09;100890.16;4357762;32;33315;-91
2022/03/26 09:51:41;;;;;;;4.60;4.22;;;;;;;19.15;25.25;100888.59;4370771;32;34196;-93
2022/03/26 09:54:15;;;;;;;9.65;4.30;;;;;;;19.28;25.62;100883.50;4370476;32;33836;-84
2022/03/26 09:56:43;;;;;;;4.53;4.18;;;;;;;19.39;25.42;100884.00;4369982;32;32992;-87
2022/03/26 09:59:38;;;;;;;10.88;5.35;;;;;;;19.33;24.47;100881.97;4361497;32;33671;-86
2022/03/26 10:02:07;;;;;;;2.37;2.22;;;;;;;19.72;24.13;100887.41;4371477;32;36061;-88
2022/03/26 10:04:44;;;;;;;5.28;3.50;;;;;;;20.09;25.03;100880.25;4383491;32;34485;-89
2022/03/26 10:07:13;;;;;;;6.30;4.18;;;;;;;20.14;24.20;100882.44;4367168;32;33411;-85
2022/03/26 10:10:03;;;;;;;4.57;4.25;;;;;;;20.31;23.83;100875.91;4367156;32;33121;-87
2022/03/26 10:12:51;;;;;;;7.72;4.12;;;;;;;20.41;22.82;100876.50;4357311;32;35175;-85
2022/03/26 10:15:23;;;;;;;3.37;2.75;;;;;;;20.58;22.94;100877.03;4367641;32;34876;-85
2022/03/26 10:18:12;;;;;;;2.62;2.37;;;;;;;20.67;21.91;100872.38;4368144;32;32743;-88
2022/03/26 10:20:57;;;;;;;3.67;2.40;;;;;;;20.73;19.68;100869.78;4368147;32;33169;-83
2022/03/26 10:23:33;;;;;;;2.72;2.40;;;;;;;20.74;20.16;100873.31;4368505;32;35115;-82
2022/03/26 10:26:14;;;;;;;4.90;4.43;;;;;;;20.92;21.44;100873.84;4367037;32;34625;-86
2022/03/26 10:28:43;;;;;;;9.43;2.45;;;;;;;20.88;21.08;100864.44;4366938;32;35008;-84
2022/03/26 10:34:25;;;;;;;6.62;4.28;;;;;;;21.05;21.86;100865.94;4367617;32;34558;-84
2022/03/26 10:36:59;;;;;;;5.37;4.32;;;;;;;21.10;21.16;100852.69;4368282;32;35774;-87
2022/03/26 10:39:29;;;;;;;12.40;5.35;;;;;;;21.10;20.43;100858.97;4367002;32;34024;-86
2022/03/26 10:42:17;;;;;;;8.55;4.53;;;;;;;21.10;22.24;100856.25;4367608;32;34112;-89
2022/03/26 10:44:59;;;;;;;6.55;4.18;;;;;;;21.13;20.03;100858.59;4367355;32;34921;-90
2022/03/26 10:47:48;;;;;;;6.28;3.50;;;;;;;20.91;20.52;100848.69;4369294;32;34687;-86
2022/03/26 10:50:38;;;;;;;4.25;3.85;;;;;;;20.96;21.98;100853.53;4366318;32;33324;-92
2022/03/26 10:53:09;;;;;;;7.93;4.20;;;;;;;21.18;19.46;100847.19;4367257;32;34254;-88
2022/03/26 10:55:43;;;;;;;4.37;3.37;;;;;;;20.97;20.38;100845.22;4354443;32;33041;-88
2022/03/26 10:58:21;;;;;;;5.30;3.78;;;;;;;20.96;19.48;100840.84;4359710;32;34045;-86
2022/03/26 11:01:09;;;;;;;5.25;3.30;;;;;;;21.18;19.84;100839.91;4369484;32;32622;-85
2022/03/26 11:03:41;;;;;;;10.65;5.82;;;;;;;21.53;20.38;100839.12;4354936;32;34175;-85
2022/03/26 11:06:12;;;;;;;3.17;2.97;;;;;;;21.56;20.38;100836.06;4340408;32;35173;-85
2022/03/26 11:09:09;;;;;;;4.20;2.85;;;;;;;21.81;19.59;100828.47;4349307;32;100842;-86
2022/03/26 11:11:58;;;;;;;3.45;2.72;;;;;;;21.87;20.10;100820.41;4344927;32;33026;-85
2022/03/26 11:14:54;;;;;;;7.25;4.50;;;;;;;21.46;19.63;100821.94;4365905;32;34275;-87
2022/03/26 11:18:01;;;;;;;5.50;3.20;;;;;;;22.06;19.12;100821.62;4354240;32;34717;-89
2022/03/26 11:21:08;;;;;;;3.40;3.10;;;;;;;21.52;19.67;100815.78;4305870;33;34145;-87
2022/03/26 11:23:57;;;;;;;3.75;3.40;;;;;;;22.33;20.01;100799.16;4288542;33;34199;-87
2022/03/26 11:26:56;;;;;;;4.40;4.05;;;;;;;22.38;18.15;100810.28;4287554;33;32744;-86
2022/03/26 11:29:51;;;;;;;4.47;3.20;;;;;;;22.79;17.98;100795.81;4305431;33;34436;-85
2022/03/26 11:32:27;;;;;;;2.87;2.42;;;;;;;22.97;18.10;100798.84;4305086;33;33035;-83
2022/03/26 11:35:01;;;;;;;7.37;4.57;;;;;;;23.08;18.92;100789.28;4302613;33;33051;-82
2022/03/26 11:37:32;;;;;;;7.90;4.03;;;;;;;23.02;17.95;100787.41;4306599;33;33366;-85
2022/03/26 11:40:00;;;;;;;7.40;3.35;;;;;;;22.57;17.64;100786.03;4294149;33;34350;-84
2022/03/26 11:42:37;;;;;;;4.65;4.32;;;;;;;22.77;17.86;100783.47;4282096;33;33574;-85
2022/03/26 11:51:26;;;;;;;7.87;5.18;;;;;;;22.70;17.10;100769.88;4297252;33;34583;-87
2022/03/26 11:54:05;;;;;;;8.27;4.90;;;;;;;23.13;17.60;100767.81;4306054;32;33959;-87
2022/03/26 11:57:09;;;;;;;10.65;5.50;;;;;;;23.44;17.77;100762.75;4355028;32;33748;-89
2022/03/26 11:59:59;;;;;;;5.15;4.03;;;;;;;23.45;16.61;100753.56;4342921;32;34225;-85
2022/03/26 12:02:46;;;;;;;4.68;4.18;;;;;;;23.08;16.76;100748.56;4366238;32;35190;-84
2022/03/26 12:08:35;;;;;;;9.50;4.78;;;;;;;24.56;15.27;100745.37;4355129;32;34401;-87
2022/03/26 12:11:27;;;;;;;6.20;4.70;;;;;;;26.29;14.49;100728.66;4276345;33;34217;-86
2022/03/26 12:14:01;;;;;;;8.63;5.12;;;;;;;26.98;14.32;100726.53;4266419;33;34913;-87
2022/03/26 12:16:49;;;;;;;6.07;4.95;;;;;;;27.26;13.64;100727.66;4290507;33;35072;-88
2022/03/26 12:19:53;;;;;;;9.30;4.93;;;;;;;27.33;12.87;100717.47;4290851;33;33599;-84
2022/03/26 12:22:28;;;;;;;18.42;5.57;;;;;;;26.73;13.02;100723.00;4278570;33;33986;-84
2022/03/26 12:25:06;;;;;;;6.97;4.68;;;;;;;27.67;12.43;100705.88;4279714;33;33779;-86
2022/03/26 12:27:38;;;;;;;8.73;5.55;;;;;;;27.17;12.45;100705.28;4279455;33;33983;-84